SBI6216 UHPP-UHWW
Flight info
| Callsign | SBI6216 |
|---|---|
| Flight time | N/A |
| Altitude | 36000 |
| Route | SAMIK4L SAMIK T577 UB P176 NAMUL P175 AKOLA T575 TD B355 BG/K0759F220 G714 DAGES DAGES2M |
| Aircraft | A320/M-SDE3FGHIRWY/LB1 |
Departure
| Time | N/A |
|---|---|
| Airport | Yelizovo Airport (UHPP) |
Arrival
| Time | 2026-05-07 08:37 |
|---|---|
| Airport | Vladivostok International Airport (UHWW) |
| Time | Latitude | Longitude | Altitude | Speed | Heading |
|---|---|---|---|---|---|
| 2026-05-07 08:21 | 43.98998 | 133.33693 | 23375 ft | 316 kts | 214° |
| 2026-05-07 08:21 | 43.97085 | 133.32175 | 22835 ft | 316 kts | 214° |
| 2026-05-07 08:22 | 43.95179 | 133.30665 | 22337 ft | 315 kts | 213° |
| 2026-05-07 08:22 | 43.93898 | 133.29651 | 22012 ft | 314 kts | 214° |
| 2026-05-07 08:22 | 43.92028 | 133.28172 | 21527 ft | 312 kts | 214° |
| 2026-05-07 08:22 | 43.90150 | 133.26656 | 20997 ft | 311 kts | 217° |
| 2026-05-07 08:23 | 43.88466 | 133.24814 | 20404 ft | 307 kts | 226° |
| 2026-05-07 08:23 | 43.87079 | 133.22585 | 19841 ft | 305 kts | 235° |
| 2026-05-07 08:23 | 43.85889 | 133.20164 | 19269 ft | 304 kts | 236° |
| 2026-05-07 08:23 | 43.84709 | 133.17742 | 18694 ft | 303 kts | 236° |
| 2026-05-07 08:24 | 43.83528 | 133.15322 | 18125 ft | 303 kts | 236° |
| 2026-05-07 08:24 | 43.82342 | 133.12897 | 17480 ft | 304 kts | 236° |
| 2026-05-07 08:24 | 43.81153 | 133.10472 | 16890 ft | 305 kts | 236° |
| 2026-05-07 08:24 | 43.79954 | 133.08032 | 16306 ft | 306 kts | 237° |
| 2026-05-07 08:25 | 43.78755 | 133.05592 | 15717 ft | 306 kts | 237° |
| 2026-05-07 08:25 | 43.77961 | 133.03974 | 15324 ft | 307 kts | 237° |
| 2026-05-07 08:25 | 43.76373 | 133.00738 | 14542 ft | 308 kts | 238° |
| 2026-05-07 08:25 | 43.75166 | 132.98289 | 13944 ft | 309 kts | 238° |
| 2026-05-07 08:26 | 43.72740 | 132.93365 | 12662 ft | 310 kts | 237° |
| 2026-05-07 08:26 | 43.71525 | 132.90904 | 12054 ft | 310 kts | 237° |
| 2026-05-07 08:26 | 43.70309 | 132.88443 | 11441 ft | 310 kts | 237° |
| 2026-05-07 08:27 | 43.69504 | 132.86815 | 11034 ft | 310 kts | 237° |
| 2026-05-07 08:27 | 43.68283 | 132.84349 | 10414 ft | 311 kts | 236° |
| 2026-05-07 08:27 | 43.67068 | 132.81895 | 10057 ft | 304 kts | 236° |
| 2026-05-07 08:27 | 43.65911 | 132.79542 | 9843 ft | 291 kts | 237° |
| 2026-05-07 08:28 | 43.64866 | 132.77191 | 9676 ft | 287 kts | 240° |
| 2026-05-07 08:28 | 43.63882 | 132.74794 | 9544 ft | 287 kts | 241° |
| 2026-05-07 08:28 | 43.62920 | 132.72381 | 9265 ft | 286 kts | 241° |
| 2026-05-07 08:28 | 43.61962 | 132.69983 | 8775 ft | 285 kts | 240° |
| 2026-05-07 08:29 | 43.60999 | 132.67595 | 8404 ft | 285 kts | 240° |
| 2026-05-07 08:29 | 43.60028 | 132.65210 | 7932 ft | 284 kts | 240° |
| 2026-05-07 08:29 | 43.59053 | 132.62835 | 7437 ft | 284 kts | 240° |
| 2026-05-07 08:29 | 43.58009 | 132.60534 | 6934 ft | 283 kts | 236° |
| 2026-05-07 08:30 | 43.56990 | 132.58213 | 6435 ft | 283 kts | 240° |
| 2026-05-07 08:30 | 43.56049 | 132.55841 | 5930 ft | 281 kts | 241° |
| 2026-05-07 08:30 | 43.55132 | 132.53509 | 5423 ft | 280 kts | 241° |
| 2026-05-07 08:30 | 43.54199 | 132.51161 | 4933 ft | 278 kts | 241° |
| 2026-05-07 08:31 | 43.53271 | 132.48835 | 4429 ft | 276 kts | 241° |
| 2026-05-07 08:31 | 43.52724 | 132.47460 | 4147 ft | 274 kts | 241° |
| 2026-05-07 08:31 | 43.51796 | 132.45133 | 3647 ft | 272 kts | 241° |
| 2026-05-07 08:31 | 43.50904 | 132.42900 | 3185 ft | 267 kts | 241° |
| 2026-05-07 08:32 | 43.50012 | 132.40667 | 2710 ft | 263 kts | 240° |
| 2026-05-07 08:32 | 43.49157 | 132.38529 | 2571 ft | 244 kts | 240° |
| 2026-05-07 08:32 | 43.48375 | 132.36573 | 2515 ft | 224 kts | 240° |
| 2026-05-07 08:32 | 43.47646 | 132.34752 | 2433 ft | 211 kts | 240° |
| 2026-05-07 08:33 | 43.46961 | 132.33042 | 2363 ft | 194 kts | 239° |
| 2026-05-07 08:33 | 43.46353 | 132.31524 | 2311 ft | 169 kts | 239° |
| 2026-05-07 08:33 | 43.45798 | 132.30141 | 2200 ft | 159 kts | 239° |
| 2026-05-07 08:33 | 43.45289 | 132.28870 | 2038 ft | 146 kts | 238° |
| 2026-05-07 08:34 | 43.44814 | 132.27688 | 1865 ft | 139 kts | 237° |
| 2026-05-07 08:34 | 43.44346 | 132.26524 | 1682 ft | 139 kts | 237° |
| 2026-05-07 08:34 | 43.43878 | 132.25361 | 1492 ft | 139 kts | 237° |
| 2026-05-07 08:34 | 43.43413 | 132.24204 | 1306 ft | 138 kts | 236° |
| 2026-05-07 08:35 | 43.42946 | 132.23044 | 1108 ft | 138 kts | 237° |
| 2026-05-07 08:35 | 43.42487 | 132.21902 | 930 ft | 138 kts | 239° |
| 2026-05-07 08:35 | 43.42024 | 132.20750 | 726 ft | 137 kts | 239° |
| 2026-05-07 08:35 | 43.41559 | 132.19598 | 580 ft | 138 kts | 239° |
| 2026-05-07 08:36 | 43.41095 | 132.18439 | 354 ft | 137 kts | 239° |
| 2026-05-07 08:36 | 43.40638 | 132.17291 | 183 ft | 136 kts | 238° |
| 2026-05-07 08:36 | 43.40200 | 132.16192 | 68 ft | 123 kts | 237° |
| 2026-05-07 08:36 | 43.39848 | 132.15351 | 60 ft | 76 kts | 240° |
| 2026-05-07 08:37 | 43.39645 | 132.14842 | 62 ft | 52 kts | 239° |
| 2026-05-07 08:37 | 43.39502 | 132.14496 | 63 ft | 40 kts | 245° |
| 2026-05-07 08:37 | 43.39398 | 132.14242 | 70 ft | 24 kts | 238° |
| 2026-05-07 08:37 | 43.39310 | 132.14210 | 68 ft | 14 kts | 158° |
| 2026-05-07 08:38 | 43.39222 | 132.14267 | 67 ft | 14 kts | 153° |
| 2026-05-07 08:38 | 43.39205 | 132.14363 | 67 ft | 10 kts | 61° |
| 2026-05-07 08:38 | 43.39241 | 132.14455 | 66 ft | 11 kts | 62° |
| 2026-05-07 08:38 | 43.39280 | 132.14549 | 68 ft | 12 kts | 59° |
| 2026-05-07 08:39 | 43.39320 | 132.14648 | 62 ft | 12 kts | 62° |
| 2026-05-07 08:39 | 43.39358 | 132.14742 | 64 ft | 10 kts | 60° |
| 2026-05-07 08:39 | 43.39396 | 132.14834 | 65 ft | 12 kts | 60° |
| 2026-05-07 08:39 | 43.39439 | 132.14939 | 62 ft | 13 kts | 60° |
| 2026-05-07 08:40 | 43.39488 | 132.15063 | 68 ft | 17 kts | 61° |
| 2026-05-07 08:40 | 43.39553 | 132.15224 | 68 ft | 21 kts | 61° |
| 2026-05-07 08:40 | 43.39626 | 132.15406 | 62 ft | 22 kts | 61° |
| 2026-05-07 08:40 | 43.39701 | 132.15587 | 60 ft | 21 kts | 61° |
| 2026-05-07 08:41 | 43.39730 | 132.15710 | 67 ft | 10 kts | 111° |
| 2026-05-07 08:41 | 43.39688 | 132.15758 | 65 ft | 7 kts | 153° |
| 2026-05-07 08:41 | 43.39645 | 132.15788 | 63 ft | 9 kts | 153° |
| 2026-05-07 08:41 | 43.39581 | 132.15853 | 68 ft | 12 kts | 116° |
| 2026-05-07 08:42 | 43.39610 | 132.15956 | 68 ft | 13 kts | 61° |
| 2026-05-07 08:42 | 43.39656 | 132.16068 | 60 ft | 14 kts | 60° |
| 2026-05-07 08:42 | 43.39703 | 132.16184 | 67 ft | 13 kts | 61° |
| 2026-05-07 08:42 | 43.39717 | 132.16276 | 61 ft | 8 kts | 81° |
| 2026-05-07 08:43 | 43.39707 | 132.16320 | 60 ft | 4 kts | 108° |
| 2026-05-07 08:43 | 43.39689 | 132.16349 | 67 ft | 3 kts | 148° |
| 2026-05-07 08:43 | 43.39680 | 132.16353 | 61 ft | 0 kts | 159° |
| 2026-05-07 08:43 | 43.39678 | 132.16354 | 63 ft | 3 kts | 159° |
| 2026-05-07 08:44 | 43.39669 | 132.16359 | 64 ft | 0 kts | 159° |
| 2026-05-07 08:44 | 43.39671 | 132.16358 | 62 ft | 2 kts | 159° |
| 2026-05-07 08:44 | 43.39673 | 132.16357 | 66 ft | 0 kts | 160° |